Station Historical Data
Daily Summary for July 22, 2017 Units:  Both    English   Metric
« Previous Day
Next Day »
Daily Weekly Monthly Yearly Custom
  High: Low: Average:
Temperature: 77.1 °F /  25.1 °C 67.6 °F /  19.8 °C 72.8 °F /  22.7 °C
Dew Point: 66.6 °F /  19.2 °C 60.8 °F /  16 °C 64.1 °F /  17.8 °C
Humidity: 88% 60% 75%
Wind Speed: 7.0mph /  11.3km/h - 1.3mph /  2.1km/h
Wind Gust: 12.0mph /  19.3km/h - -
Wind- - ENE
Pressure: 29.92 in /  1013.1 hPa 29.74 in /  1007 hPa -
Precipitation: 0.02 in /  0.51 mm    
Historical Graphs
 
 
Tabular Data for July 22, 2017
Time Temperature Dew Point Pressure Wind Wind Speed Wind Gust Humidity Rainfall Rate (Hourly)
00:00 70.9 °F /  21.6 °C 61.8 °F /  16.6 °C 29.91in /  1012.8hPa Calm   3.0mph /  4.8km/h 73% 0.00in /  0mm
00:05 71.2 °F /  21.8 °C 61.3 °F /  16.3 °C 29.91in /  1012.8hPa Calm     71% 0.00in /  0mm
00:10 71.3 °F /  21.8 °C 61.0 °F /  16.1 °C 29.92in /  1013.1hPa Calm     70% 0.00in /  0mm
00:15 71.4 °F /  21.9 °C 61.1 °F /  16.2 °C 29.92in /  1013.1hPa Calm     70% 0.00in /  0mm
00:20 71.4 °F /  21.9 °C 61.1 °F /  16.2 °C 29.92in /  1013.1hPa Calm     70% 0.00in /  0mm
00:25 71.4 °F /  21.9 °C 61.1 °F /  16.2 °C 29.92in /  1013.1hPa Calm     70% 0.00in /  0mm
00:30 71.4 °F /  21.9 °C 61.1 °F /  16.2 °C 29.92in /  1013.1hPa Calm     70% 0.00in /  0mm
00:35 71.2 °F /  21.8 °C 60.9 °F /  16.1 °C 29.92in /  1013.1hPa Calm     70% 0.00in /  0mm
00:40 71.2 °F /  21.8 °C 60.9 °F /  16.1 °C 29.92in /  1013.1hPa Calm     70% 0.00in /  0mm
00:45 71.2 °F /  21.8 °C 60.9 °F /  16.1 °C 29.92in /  1013.1hPa Calm     70% 0.00in /  0mm
00:50 71.1 °F /  21.7 °C 60.8 °F /  16 °C 29.92in /  1013.1hPa Calm     70% 0.00in /  0mm
00:55 71.1 °F /  21.7 °C 61.2 °F /  16.2 °C 29.92in /  1013.1hPa Calm     71% 0.00in /  0mm
01:00 71.2 °F /  21.8 °C 61.3 °F /  16.3 °C 29.92in /  1013.1hPa Calm     71% 0.00in /  0mm
01:05 71.1 °F /  21.7 °C 61.6 °F /  16.4 °C 29.91in /  1012.8hPa Calm     72% 0.00in /  0mm
01:10 71.0 °F /  21.7 °C 61.5 °F /  16.4 °C 29.92in /  1013.1hPa Calm     72% 0.00in /  0mm
01:15 70.8 °F /  21.6 °C 61.7 °F /  16.5 °C 29.92in /  1013.1hPa Calm     73% 0.00in /  0mm
01:20 70.6 °F /  21.4 °C 61.9 °F /  16.6 °C 29.92in /  1013.1hPa Calm     74% 0.00in /  0mm
01:25 70.3 °F /  21.3 °C 61.6 °F /  16.4 °C 29.91in /  1012.8hPa Calm     74% 0.00in /  0mm
01:30 70.3 °F /  21.3 °C 61.6 °F /  16.4 °C 29.92in /  1013.1hPa Calm     74% 0.00in /  0mm
01:35 70.2 °F /  21.2 °C 61.5 °F /  16.4 °C 29.91in /  1012.8hPa Calm     74% 0.00in /  0mm
01:40 70.1 °F /  21.2 °C 61.8 °F /  16.6 °C 29.91in /  1012.8hPa Calm     75% 0.00in /  0mm
01:45 70.0 °F /  21.1 °C 62.1 °F /  16.7 °C 29.91in /  1012.8hPa Calm     76% 0.00in /  0mm
01:50 69.8 °F /  21 °C 61.9 °F /  16.6 °C 29.91in /  1012.8hPa Calm     76% 0.00in /  0mm
01:55 69.7 °F /  20.9 °C 61.8 °F /  16.6 °C 29.90in /  1012.4hPa Calm     76% 0.00in /  0mm
02:00 69.6 °F /  20.9 °C 61.7 °F /  16.5 °C 29.91in /  1012.8hPa Calm     76% 0.00in /  0mm
02:05 69.7 °F /  20.9 °C 61.8 °F /  16.6 °C 29.90in /  1012.4hPa Calm     76% 0.00in /  0mm
02:10 69.6 °F /  20.9 °C 61.7 °F /  16.5 °C 29.90in /  1012.4hPa Calm     76% 0.00in /  0mm
02:15 69.7 °F /  20.9 °C 62.2 °F /  16.8 °C 29.90in /  1012.4hPa Calm     77% 0.00in /  0mm
02:20 69.5 °F /  20.8 °C 62.0 °F /  16.7 °C 29.90in /  1012.4hPa Calm     77% 0.00in /  0mm
02:25 69.5 °F /  20.8 °C 61.6 °F /  16.4 °C 29.89in /  1012.1hPa Calm     76% 0.00in /  0mm
02:30 69.6 °F /  20.9 °C 61.7 °F /  16.5 °C 29.89in /  1012.1hPa Calm     76% 0.00in /  0mm
02:35 69.6 °F /  20.9 °C 62.1 °F /  16.7 °C 29.89in /  1012.1hPa Calm     77% 0.00in /  0mm
02:40 69.3 °F /  20.7 °C 62.1 °F /  16.7 °C 29.88in /  1011.7hPa Calm     78% 0.00in /  0mm
02:45 69.0 °F /  20.6 °C 61.9 °F /  16.6 °C 29.88in /  1011.7hPa Calm     78% 0.00in /  0mm
02:50 68.8 °F /  20.4 °C 62.0 °F /  16.7 °C 29.88in /  1011.7hPa Calm     79% 0.00in /  0mm
02:55 68.5 °F /  20.3 °C 62.1 °F /  16.7 °C 29.88in /  1011.7hPa Calm     80% 0.00in /  0mm
03:00 68.3 °F /  20.2 °C 61.9 °F /  16.6 °C 29.88in /  1011.7hPa Calm     80% 0.00in /  0mm
03:05 68.3 °F /  20.2 °C 61.9 °F /  16.6 °C 29.87in /  1011.4hPa Calm     80% 0.00in /  0mm
03:10 68.4 °F /  20.2 °C 62.0 °F /  16.7 °C 29.86in /  1011.1hPa Calm     80% 0.00in /  0mm
03:15 68.4 °F /  20.2 °C 62.0 °F /  16.7 °C 29.87in /  1011.4hPa Calm     80% 0.00in /  0mm
03:20 68.3 °F /  20.2 °C 61.9 °F /  16.6 °C 29.87in /  1011.4hPa Calm     80% 0.00in /  0mm
03:25 68.1 °F /  20.1 °C 62.0 °F /  16.7 °C 29.86in /  1011.1hPa Calm     81% 0.00in /  0mm
03:30 68.2 °F /  20.1 °C 62.1 °F /  16.7 °C 29.87in /  1011.4hPa Calm     81% 0.00in /  0mm
03:35 68.1 °F /  20.1 °C 62.0 °F /  16.7 °C 29.86in /  1011.1hPa Calm     81% 0.00in /  0mm
03:40 68.1 °F /  20.1 °C 62.4 °F /  16.9 °C 29.86in /  1011.1hPa Calm     82% 0.00in /  0mm
03:45 68.1 °F /  20.1 °C 62.4 °F /  16.9 °C 29.86in /  1011.1hPa Calm     82% 0.00in /  0mm
03:50 68.0 °F /  20 °C 62.6 °F /  17 °C 29.87in /  1011.4hPa Calm     83% 0.00in /  0mm
03:55 67.7 °F /  19.8 °C 62.7 °F /  17.1 °C 29.87in /  1011.4hPa Calm     84% 0.00in /  0mm
04:00 67.7 °F /  19.8 °C 62.7 °F /  17.1 °C 29.88in /  1011.7hPa Calm     84% 0.00in /  0mm
04:05 67.7 °F /  19.8 °C 62.7 °F /  17.1 °C 29.87in /  1011.4hPa Calm     84% 0.00in /  0mm
04:10 67.6 °F /  19.8 °C 62.6 °F /  17 °C 29.87in /  1011.4hPa Calm     84% 0.00in /  0mm
04:15 67.8 °F /  19.9 °C 62.8 °F /  17.1 °C 29.87in /  1011.4hPa Calm     84% 0.00in /  0mm
04:20 67.9 °F /  19.9 °C 62.9 °F /  17.2 °C 29.88in /  1011.7hPa Calm     84% 0.00in /  0mm
04:25 67.8 °F /  19.9 °C 62.8 °F /  17.1 °C 29.88in /  1011.7hPa Calm     84% 0.00in /  0mm
04:30 67.8 °F /  19.9 °C 62.8 °F /  17.1 °C 29.88in /  1011.7hPa Calm     84% 0.00in /  0mm
04:35 67.9 °F /  19.9 °C 62.9 °F /  17.2 °C 29.89in /  1012.1hPa Calm     84% 0.00in /  0mm
04:40 67.9 °F /  19.9 °C 62.9 °F /  17.2 °C 29.88in /  1011.7hPa Calm     84% 0.00in /  0mm
04:45 67.9 °F /  19.9 °C 62.9 °F /  17.2 °C 29.88in /  1011.7hPa Calm     84% 0.00in /  0mm
04:50 68.2 °F /  20.1 °C 63.5 °F /  17.5 °C 29.89in /  1012.1hPa Calm     85% 0.00in /  0mm
04:55 68.4 °F /  20.2 °C 63.7 °F /  17.6 °C 29.89in /  1012.1hPa Calm     85% 0.00in /  0mm
05:00 68.5 °F /  20.3 °C 63.8 °F /  17.7 °C 29.89in /  1012.1hPa Calm     85% 0.00in /  0mm
05:05 68.5 °F /  20.3 °C 63.8 °F /  17.7 °C 29.88in /  1011.7hPa Calm     85% 0.00in /  0mm
05:10 68.6 °F /  20.3 °C 64.2 °F /  17.9 °C 29.88in /  1011.7hPa Calm     86% 0.00in /  0mm
05:15 68.6 °F /  20.3 °C 64.2 °F /  17.9 °C 29.87in /  1011.4hPa Calm     86% 0.00in /  0mm
05:20 68.7 °F /  20.4 °C 64.3 °F /  17.9 °C 29.87in /  1011.4hPa Calm     86% 0.00in /  0mm
05:25 68.6 °F /  20.3 °C 64.2 °F /  17.9 °C 29.87in /  1011.4hPa Calm     86% 0.00in /  0mm
05:30 68.7 °F /  20.4 °C 64.3 °F /  17.9 °C 29.86in /  1011.1hPa Calm     86% 0.00in /  0mm
05:35 68.6 °F /  20.3 °C 64.2 °F /  17.9 °C 29.87in /  1011.4hPa Calm     86% 0.00in /  0mm
05:40 68.7 °F /  20.4 °C 64.3 °F /  17.9 °C 29.87in /  1011.4hPa Calm     86% 0.00in /  0mm
05:45 68.8 °F /  20.4 °C 64.4 °F /  18 °C 29.87in /  1011.4hPa Calm     86% 0.00in /  0mm
05:50 68.7 °F /  20.4 °C 64.3 °F /  17.9 °C 29.87in /  1011.4hPa Calm     86% 0.00in /  0mm
05:55 68.8 °F /  20.4 °C 64.4 °F /  18 °C 29.87in /  1011.4hPa Calm     86% 0.00in /  0mm
06:00 68.8 °F /  20.4 °C 64.4 °F /  18 °C 29.87in /  1011.4hPa Calm     86% 0.00in /  0mm
06:05 68.8 °F /  20.4 °C 64.4 °F /  18 °C 29.87in /  1011.4hPa Calm     86% 0.00in /  0mm
06:10 68.8 °F /  20.4 °C 64.4 °F /  18 °C 29.87in /  1011.4hPa Calm     86% 0.00in /  0mm
06:15 68.8 °F /  20.4 °C 64.4 °F /  18 °C 29.87in /  1011.4hPa Calm     86% 0.00in /  0mm
06:20 68.8 °F /  20.4 °C 64.4 °F /  18 °C 29.87in /  1011.4hPa Calm     86% 0.00in /  0mm
06:25 68.7 °F /  20.4 °C 64.7 °F /  18.2 °C 29.87in /  1011.4hPa Calm     87% 0.00in /  0mm
06:30 68.6 °F /  20.3 °C 64.6 °F /  18.1 °C 29.87in /  1011.4hPa Calm     87% 0.00in /  0mm
06:35 68.7 °F /  20.4 °C 64.7 °F /  18.2 °C 29.87in /  1011.4hPa Calm     87% 0.00in /  0mm
06:40 68.9 °F /  20.5 °C 64.5 °F /  18.1 °C 29.88in /  1011.7hPa Calm     86% 0.00in /  0mm
06:45 69.0 °F /  20.6 °C 64.6 °F /  18.1 °C 29.88in /  1011.7hPa Calm     86% 0.00in /  0mm
06:50 69.0 °F /  20.6 °C 64.6 °F /  18.1 °C 29.87in /  1011.4hPa Calm   3.0mph /  4.8km/h 86% 0.00in /  0mm
06:55 69.1 °F /  20.6 °C 64.7 °F /  18.2 °C 29.88in /  1011.7hPa Calm   3.0mph /  4.8km/h 86% 0.00in /  0mm
07:00 69.3 °F /  20.7 °C 64.9 °F /  18.3 °C 29.87in /  1011.4hPa Calm     86% 0.00in /  0mm
07:05 69.5 °F /  20.8 °C 64.8 °F /  18.2 °C 29.88in /  1011.7hPa Calm     85% 0.00in /  0mm
07:10 69.6 °F /  20.9 °C 64.9 °F /  18.3 °C 29.87in /  1011.4hPa Calm     85% 0.00in /  0mm
07:15 69.8 °F /  21 °C 64.7 °F /  18.2 °C 29.87in /  1011.4hPa Calm     84% 0.00in /  0mm
07:20 70.0 °F /  21.1 °C 64.9 °F /  18.3 °C 29.88in /  1011.7hPa Calm     84% 0.00in /  0mm
07:25 70.2 °F /  21.2 °C 65.1 °F /  18.4 °C 29.87in /  1011.4hPa Calm     84% 0.00in /  0mm
07:30 70.2 °F /  21.2 °C 64.8 °F /  18.2 °C 29.87in /  1011.4hPa Calm     83% 0.00in /  0mm
07:35 70.3 °F /  21.3 °C 64.9 °F /  18.3 °C 29.87in /  1011.4hPa Calm     83% 0.00in /  0mm
07:40 70.3 °F /  21.3 °C 64.5 °F /  18.1 °C 29.87in /  1011.4hPa Calm     82% 0.00in /  0mm
07:45 70.4 °F /  21.3 °C 64.6 °F /  18.1 °C 29.87in /  1011.4hPa Calm     82% 0.00in /  0mm
07:50 70.7 °F /  21.5 °C 64.9 °F /  18.3 °C 29.87in /  1011.4hPa Calm     82% 0.00in /  0mm
07:55 70.9 °F /  21.6 °C 64.8 °F /  18.2 °C 29.87in /  1011.4hPa Calm     81% 0.00in /  0mm
08:00 71.1 °F /  21.7 °C 65.0 °F /  18.3 °C 29.87in /  1011.4hPa Calm     81% 0.00in /  0mm
08:05 71.2 °F /  21.8 °C 64.7 °F /  18.2 °C 29.87in /  1011.4hPa Calm     80% 0.00in /  0mm
08:10 71.3 °F /  21.8 °C 64.8 °F /  18.2 °C 29.87in /  1011.4hPa Calm     80% 0.00in /  0mm
08:15 71.5 °F /  21.9 °C 65.0 °F /  18.3 °C 29.87in /  1011.4hPa Calm     80% 0.00in /  0mm
08:20 71.7 °F /  22.1 °C 65.2 °F /  18.4 °C 29.87in /  1011.4hPa Calm     80% 0.00in /  0mm
08:25 71.8 °F /  22.1 °C 64.9 °F /  18.3 °C 29.87in /  1011.4hPa Calm   2.0mph /  3.2km/h 79% 0.00in /  0mm
08:30 72.1 °F /  22.3 °C 65.2 °F /  18.4 °C 29.87in /  1011.4hPa Calm   2.0mph /  3.2km/h 79% 0.00in /  0mm
08:35 72.3 °F /  22.4 °C 65.4 °F /  18.6 °C 29.87in /  1011.4hPa Calm   2.0mph /  3.2km/h 79% 0.00in /  0mm
08:40 72.6 °F /  22.6 °C 65.3 °F /  18.5 °C 29.87in /  1011.4hPa Calm   3.0mph /  4.8km/h 78% 0.00in /  0mm
08:45 72.6 °F /  22.6 °C 65.0 °F /  18.3 °C 29.87in /  1011.4hPa SW 2.0mph /  3.2km/h 4.0mph /  6.4km/h 77% 0.00in /  0mm
08:50 72.8 °F /  22.7 °C 64.8 °F /  18.2 °C 29.88in /  1011.7hPa SW 1.0mph /  1.6km/h 4.0mph /  6.4km/h 76% 0.00in /  0mm
08:55 73.0 °F /  22.8 °C 65.0 °F /  18.3 °C 29.88in /  1011.7hPa Calm   2.0mph /  3.2km/h 76% 0.00in /  0mm
09:00 73.1 °F /  22.8 °C 64.7 °F /  18.2 °C 29.88in /  1011.7hPa Calm     75% 0.00in /  0mm
09:05 73.1 °F /  22.8 °C 65.1 °F /  18.4 °C 29.88in /  1011.7hPa Calm     76% 0.00in /  0mm
09:10 72.9 °F /  22.7 °C 64.1 °F /  17.8 °C 29.88in /  1011.7hPa Calm     74% 0.00in /  0mm
09:15 73.0 °F /  22.8 °C 64.2 °F /  17.9 °C 29.88in /  1011.7hPa Calm     74% 0.00in /  0mm
09:20 73.0 °F /  22.8 °C 64.6 °F /  18.1 °C 29.88in /  1011.7hPa Calm     75% 0.00in /  0mm
09:25 73.0 °F /  22.8 °C 64.6 °F /  18.1 °C 29.88in /  1011.7hPa Calm     75% 0.00in /  0mm
09:30 73.0 °F /  22.8 °C 64.2 °F /  17.9 °C 29.88in /  1011.7hPa Calm     74% 0.00in /  0mm
09:35 73.1 °F /  22.8 °C 64.7 °F /  18.2 °C 29.88in /  1011.7hPa Calm     75% 0.00in /  0mm
09:40 73.3 °F /  22.9 °C 64.5 °F /  18.1 °C 29.88in /  1011.7hPa Calm     74% 0.00in /  0mm
09:45 73.4 °F /  23 °C 65.0 °F /  18.3 °C 29.88in /  1011.7hPa Calm     75% 0.00in /  0mm
09:50 73.5 °F /  23.1 °C 65.1 °F /  18.4 °C 29.87in /  1011.4hPa Calm     75% 0.00in /  0mm
09:55 73.6 °F /  23.1 °C 65.2 °F /  18.4 °C 29.88in /  1011.7hPa Calm     75% 0.00in /  0mm
10:00 73.5 °F /  23.1 °C 65.1 °F /  18.4 °C 29.87in /  1011.4hPa Calm     75% 0.00in /  0mm
10:05 73.4 °F /  23 °C 65.0 °F /  18.3 °C 29.87in /  1011.4hPa SSE 2.0mph /  3.2km/h 3.0mph /  4.8km/h 75% 0.00in /  0mm
10:10 73.3 °F /  22.9 °C 64.9 °F /  18.3 °C 29.86in /  1011.1hPa Calm   3.0mph /  4.8km/h 75% 0.00in /  0mm
10:15 73.3 °F /  22.9 °C 64.9 °F /  18.3 °C 29.86in /  1011.1hPa Calm     75% 0.00in /  0mm
10:20 73.4 °F /  23 °C 64.6 °F /  18.1 °C 29.87in /  1011.4hPa Calm   3.0mph /  4.8km/h 74% 0.00in /  0mm
10:25 73.7 °F /  23.2 °C 64.5 °F /  18.1 °C 29.87in /  1011.4hPa SW 2.0mph /  3.2km/h 5.0mph /  8km/h 73% 0.00in /  0mm
10:30 73.9 °F /  23.3 °C 64.7 °F /  18.2 °C 29.87in /  1011.4hPa Calm   3.0mph /  4.8km/h 73% 0.00in /  0mm
10:35 74.0 °F /  23.3 °C 64.8 °F /  18.2 °C 29.86in /  1011.1hPa Calm   3.0mph /  4.8km/h 73% 0.00in /  0mm
10:40 74.3 °F /  23.5 °C 65.1 °F /  18.4 °C 29.86in /  1011.1hPa SSW 1.0mph /  1.6km/h 4.0mph /  6.4km/h 73% 0.00in /  0mm
10:45 74.6 °F /  23.7 °C 65.0 °F /  18.3 °C 29.86in /  1011.1hPa Calm   3.0mph /  4.8km/h 72% 0.00in /  0mm
10:50 74.7 °F /  23.7 °C 64.3 °F /  17.9 °C 29.86in /  1011.1hPa SW 1.0mph /  1.6km/h 4.0mph /  6.4km/h 70% 0.00in /  0mm
10:55 74.9 °F /  23.8 °C 65.3 °F /  18.5 °C 29.86in /  1011.1hPa SW 1.0mph /  1.6km/h 4.0mph /  6.4km/h 72% 0.00in /  0mm
11:00 74.7 °F /  23.7 °C 64.7 °F /  18.2 °C 29.86in /  1011.1hPa SW 1.0mph /  1.6km/h 2.0mph /  3.2km/h 71% 0.00in /  0mm
11:05 74.9 °F /  23.8 °C 64.9 °F /  18.3 °C 29.86in /  1011.1hPa Calm   3.0mph /  4.8km/h 71% 0.00in /  0mm
11:10 75.1 °F /  23.9 °C 64.6 °F /  18.1 °C 29.85in /  1010.7hPa Calm   3.0mph /  4.8km/h 70% 0.00in /  0mm
11:20 75.3 °F /  24.1 °C 64.8 °F /  18.2 °C 29.85in /  1010.7hPa Calm   3.0mph /  4.8km/h 70% 0.00in /  0mm
11:25 75.5 °F /  24.2 °C 65.0 °F /  18.3 °C 29.84in /  1010.4hPa Calm     70% 0.00in /  0mm
11:30 75.6 °F /  24.2 °C 65.5 °F /  18.6 °C 29.85in /  1010.7hPa Calm     71% 0.00in /  0mm
11:35 75.6 °F /  24.2 °C 65.1 °F /  18.4 °C 29.84in /  1010.4hPa Calm     70% 0.00in /  0mm
11:40 75.9 °F /  24.4 °C 64.2 °F /  17.9 °C 29.85in /  1010.7hPa Calm     67% 0.00in /  0mm
11:45 76.2 °F /  24.6 °C 65.3 °F /  18.5 °C 29.85in /  1010.7hPa Calm     69% 0.00in /  0mm
11:50 75.9 °F /  24.4 °C 64.2 °F /  17.9 °C 29.85in /  1010.7hPa Calm     67% 0.00in /  0mm
11:55 75.9 °F /  24.4 °C 64.6 °F /  18.1 °C 29.85in /  1010.7hPa Calm     68% 0.00in /  0mm
12:00 75.9 °F /  24.4 °C 64.6 °F /  18.1 °C 29.84in /  1010.4hPa Calm     68% 0.00in /  0mm
12:05 75.8 °F /  24.3 °C 63.6 °F /  17.6 °C 29.85in /  1010.7hPa Calm     66% 0.00in /  0mm
12:10 76.0 °F /  24.4 °C 64.2 °F /  17.9 °C 29.85in /  1010.7hPa Calm     67% 0.00in /  0mm
12:15 75.9 °F /  24.4 °C 64.2 °F /  17.9 °C 29.84in /  1010.4hPa Calm     67% 0.00in /  0mm
12:20 75.9 °F /  24.4 °C 64.2 °F /  17.9 °C 29.85in /  1010.7hPa Calm     67% 0.00in /  0mm
12:25 76.2 °F /  24.6 °C 64.4 °F /  18 °C 29.85in /  1010.7hPa Calm     67% 0.00in /  0mm
12:30 76.0 °F /  24.4 °C 64.2 °F /  17.9 °C 29.85in /  1010.7hPa Calm     67% 0.00in /  0mm
12:35 76.3 °F /  24.6 °C 64.1 °F /  17.8 °C 29.84in /  1010.4hPa Calm     66% 0.00in /  0mm
12:40 76.4 °F /  24.7 °C 64.6 °F /  18.1 °C 29.84in /  1010.4hPa Calm   2.0mph /  3.2km/h 67% 0.00in /  0mm
12:45 76.6 °F /  24.8 °C 64.8 °F /  18.2 °C 29.84in /  1010.4hPa ENE 1.0mph /  1.6km/h 3.0mph /  4.8km/h 67% 0.00in /  0mm
12:50 76.6 °F /  24.8 °C 64.0 °F /  17.8 °C 29.84in /  1010.4hPa ENE 1.0mph /  1.6km/h 3.0mph /  4.8km/h 65% 0.00in /  0mm
12:55 76.5 °F /  24.7 °C 64.3 °F /  17.9 °C 29.85in /  1010.7hPa Calm   4.0mph /  6.4km/h 66% 0.00in /  0mm
13:00 76.4 °F /  24.7 °C 65.1 °F /  18.4 °C 29.85in /  1010.7hPa Calm     68% 0.00in /  0mm
13:05 76.4 °F /  24.7 °C 65.1 °F /  18.4 °C 29.85in /  1010.7hPa Calm     68% 0.00in /  0mm
13:10 76.6 °F /  24.8 °C 64.8 °F /  18.2 °C 29.84in /  1010.4hPa Calm   5.0mph /  8km/h 67% 0.00in /  0mm
13:15 76.6 °F /  24.8 °C 64.0 °F /  17.8 °C 29.84in /  1010.4hPa ENE 2.0mph /  3.2km/h 5.0mph /  8km/h 65% 0.00in /  0mm
13:20 76.4 °F /  24.7 °C 64.2 °F /  17.9 °C 29.84in /  1010.4hPa ENE 2.0mph /  3.2km/h 6.0mph /  9.7km/h 66% 0.00in /  0mm
13:25 76.4 °F /  24.7 °C 65.1 °F /  18.4 °C 29.83in /  1010hPa NE 1.0mph /  1.6km/h 4.0mph /  6.4km/h 68% 0.00in /  0mm
13:30 76.4 °F /  24.7 °C 65.9 °F /  18.8 °C 29.83in /  1010hPa ENE 4.0mph /  6.4km/h 5.0mph /  8km/h 70% 0.00in /  0mm
13:35 76.4 °F /  24.7 °C 65.5 °F /  18.6 °C 29.83in /  1010hPa NE 2.0mph /  3.2km/h 4.0mph /  6.4km/h 69% 0.00in /  0mm
13:40 76.5 °F /  24.7 °C 65.6 °F /  18.7 °C 29.83in /  1010hPa ENE 3.0mph /  4.8km/h 8.0mph /  12.9km/h 69% 0.00in /  0mm
13:45 76.8 °F /  24.9 °C 66.3 °F /  19.1 °C 29.83in /  1010hPa ENE 3.0mph /  4.8km/h 8.0mph /  12.9km/h 70% 0.00in /  0mm
13:50 76.7 °F /  24.8 °C 65.3 °F /  18.5 °C 29.83in /  1010hPa NE 2.0mph /  3.2km/h 7.0mph /  11.3km/h 68% 0.00in /  0mm
13:55 76.5 °F /  24.7 °C 64.7 °F /  18.2 °C 29.83in /  1010hPa ENE 3.0mph /  4.8km/h 7.0mph /  11.3km/h 67% 0.00in /  0mm
14:00 76.5 °F /  24.7 °C 65.1 °F /  18.4 °C 29.83in /  1010hPa ENE 3.0mph /  4.8km/h 7.0mph /  11.3km/h 68% 0.00in /  0mm
14:05 76.1 °F /  24.5 °C 65.2 °F /  18.4 °C 29.83in /  1010hPa NE 3.0mph /  4.8km/h 7.0mph /  11.3km/h 69% 0.00in /  0mm
14:10 75.9 °F /  24.4 °C 65.0 °F /  18.3 °C 29.83in /  1010hPa NE 3.0mph /  4.8km/h 8.0mph /  12.9km/h 69% 0.00in /  0mm
14:15 75.6 °F /  24.2 °C 65.1 °F /  18.4 °C 29.82in /  1009.7hPa NE 3.0mph /  4.8km/h 8.0mph /  12.9km/h 70% 0.00in /  0mm
14:20 75.6 °F /  24.2 °C 65.1 °F /  18.4 °C 29.82in /  1009.7hPa ENE 3.0mph /  4.8km/h 10.0mph /  16.1km/h 70% 0.00in /  0mm
14:25 75.3 °F /  24.1 °C 64.8 °F /  18.2 °C 29.82in /  1009.7hPa ENE 2.0mph /  3.2km/h 9.0mph /  14.5km/h 70% 0.00in /  0mm
14:30 75.1 °F /  23.9 °C 65.1 °F /  18.4 °C 29.82in /  1009.7hPa NE 4.0mph /  6.4km/h 9.0mph /  14.5km/h 71% 0.00in /  0mm
14:35 75.2 °F /  24 °C 64.7 °F /  18.2 °C 29.82in /  1009.7hPa NE 7.0mph /  11.3km/h 9.0mph /  14.5km/h 70% 0.00in /  0mm
14:40 75.1 °F /  23.9 °C 64.2 °F /  17.9 °C 29.82in /  1009.7hPa NE 4.0mph /  6.4km/h 9.0mph /  14.5km/h 69% 0.00in /  0mm
14:45 75.3 °F /  24.1 °C 64.8 °F /  18.2 °C 29.81in /  1009.4hPa ENE 3.0mph /  4.8km/h 10.0mph /  16.1km/h 70% 0.00in /  0mm
14:50 75.3 °F /  24.1 °C 64.4 °F /  18 °C 29.81in /  1009.4hPa ENE 7.0mph /  11.3km/h 11.0mph /  17.7km/h 69% 0.00in /  0mm
14:55 75.5 °F /  24.2 °C 65.0 °F /  18.3 °C 29.81in /  1009.4hPa East 5.0mph /  8km/h 11.0mph /  17.7km/h 70% 0.00in /  0mm
15:00 75.5 °F /  24.2 °C 65.0 °F /  18.3 °C 29.81in /  1009.4hPa ENE 6.0mph /  9.7km/h 11.0mph /  17.7km/h 70% 0.00in /  0mm
15:05 75.7 °F /  24.3 °C 65.2 °F /  18.4 °C 29.80in /  1009hPa ENE 5.0mph /  8km/h 12.0mph /  19.3km/h 70% 0.00in /  0mm
15:10 75.7 °F /  24.3 °C 64.4 °F /  18 °C 29.80in /  1009hPa ENE 5.0mph /  8km/h 12.0mph /  19.3km/h 68% 0.00in /  0mm
15:15 75.9 °F /  24.4 °C 64.2 °F /  17.9 °C 29.80in /  1009hPa ENE 5.0mph /  8km/h 10.0mph /  16.1km/h 67% 0.00in /  0mm
15:20 76.2 °F /  24.6 °C 64.0 °F /  17.8 °C 29.79in /  1008.7hPa NE 2.0mph /  3.2km/h 8.0mph /  12.9km/h 66% 0.00in /  0mm
15:25 76.3 °F /  24.6 °C 64.5 °F /  18.1 °C 29.79in /  1008.7hPa NE 2.0mph /  3.2km/h 10.0mph /  16.1km/h 67% 0.00in /  0mm
15:30 76.7 °F /  24.8 °C 64.9 °F /  18.3 °C 29.79in /  1008.7hPa ENE 3.0mph /  4.8km/h 10.0mph /  16.1km/h 67% 0.00in /  0mm
15:35 76.7 °F /  24.8 °C 64.9 °F /  18.3 °C 29.79in /  1008.7hPa ENE 3.0mph /  4.8km/h 10.0mph /  16.1km/h 67% 0.00in /  0mm
15:40 76.6 °F /  24.8 °C 64.0 °F /  17.8 °C 29.78in /  1008.4hPa ENE 4.0mph /  6.4km/h 8.0mph /  12.9km/h 65% 0.00in /  0mm
15:45 76.5 °F /  24.7 °C 63.4 °F /  17.4 °C 29.77in /  1008hPa ENE 3.0mph /  4.8km/h 8.0mph /  12.9km/h 64% 0.00in /  0mm
15:50 76.7 °F /  24.8 °C 64.0 °F /  17.8 °C 29.77in /  1008hPa South 3.0mph /  4.8km/h 7.0mph /  11.3km/h 65% 0.00in /  0mm
15:55 76.9 °F /  24.9 °C 63.8 °F /  17.7 °C 29.77in /  1008hPa ENE 3.0mph /  4.8km/h 8.0mph /  12.9km/h 64% 0.00in /  0mm
16:00 76.8 °F /  24.9 °C 64.1 °F /  17.8 °C 29.77in /  1008hPa East 3.0mph /  4.8km/h 8.0mph /  12.9km/h 65% 0.00in /  0mm
16:05 76.8 °F /  24.9 °C 64.1 °F /  17.8 °C 29.78in /  1008.4hPa ENE 2.0mph /  3.2km/h 6.0mph /  9.7km/h 65% 0.00in /  0mm
16:10 76.9 °F /  24.9 °C 64.2 °F /  17.9 °C 29.78in /  1008.4hPa ENE 3.0mph /  4.8km/h 6.0mph /  9.7km/h 65% 0.00in /  0mm
16:15 76.9 °F /  24.9 °C 64.2 °F /  17.9 °C 29.78in /  1008.4hPa NE 1.0mph /  1.6km/h 5.0mph /  8km/h 65% 0.00in /  0mm
16:20 76.7 °F /  24.8 °C 63.6 °F /  17.6 °C 29.78in /  1008.4hPa East 2.0mph /  3.2km/h 5.0mph /  8km/h 64% 0.00in /  0mm
16:25 77.0 °F /  25 °C 63.9 °F /  17.7 °C 29.78in /  1008.4hPa ENE 3.0mph /  4.8km/h 5.0mph /  8km/h 64% 0.00in /  0mm
16:30 77.1 °F /  25.1 °C 64.0 °F /  17.8 °C 29.77in /  1008hPa ENE 3.0mph /  4.8km/h 8.0mph /  12.9km/h 64% 0.00in /  0mm
16:35 77.1 °F /  25.1 °C 64.0 °F /  17.8 °C 29.77in /  1008hPa ENE 4.0mph /  6.4km/h 8.0mph /  12.9km/h 64% 0.00in /  0mm
16:40 77.1 °F /  25.1 °C 64.0 °F /  17.8 °C 29.77in /  1008hPa ENE 4.0mph /  6.4km/h 8.0mph /  12.9km/h 64% 0.00in /  0mm
16:45 76.7 °F /  24.8 °C 63.6 °F /  17.6 °C 29.77in /  1008hPa ENE 3.0mph /  4.8km/h 8.0mph /  12.9km/h 64% 0.00in /  0mm
16:50 76.6 °F /  24.8 °C 64.0 °F /  17.8 °C 29.76in /  1007.7hPa NE 2.0mph /  3.2km/h 5.0mph /  8km/h 65% 0.00in /  0mm
16:55 76.4 °F /  24.7 °C 63.8 °F /  17.7 °C 29.76in /  1007.7hPa NE 4.0mph /  6.4km/h 10.0mph /  16.1km/h 65% 0.00in /  0mm
17:00 76.3 °F /  24.6 °C 64.1 °F /  17.8 °C 29.77in /  1008hPa ENE 4.0mph /  6.4km/h 10.0mph /  16.1km/h 66% 0.00in /  0mm
17:05 76.1 °F /  24.5 °C 63.9 °F /  17.7 °C 29.77in /  1008hPa NE 4.0mph /  6.4km/h 9.0mph /  14.5km/h 66% 0.00in /  0mm
17:10 76.1 °F /  24.5 °C 63.5 °F /  17.5 °C 29.76in /  1007.7hPa ENE 4.0mph /  6.4km/h 9.0mph /  14.5km/h 65% 0.00in /  0mm
17:15 76.2 °F /  24.6 °C 63.6 °F /  17.6 °C 29.76in /  1007.7hPa ENE 5.0mph /  8km/h 10.0mph /  16.1km/h 65% 0.00in /  0mm
17:20 76.1 °F /  24.5 °C 63.9 °F /  17.7 °C 29.76in /  1007.7hPa NE 2.0mph /  3.2km/h 7.0mph /  11.3km/h 66% 0.00in /  0mm
17:25 76.0 °F /  24.4 °C 62.9 °F /  17.2 °C 29.76in /  1007.7hPa ENE 4.0mph /  6.4km/h 10.0mph /  16.1km/h 64% 0.00in /  0mm
17:30 76.0 °F /  24.4 °C 63.4 °F /  17.4 °C 29.76in /  1007.7hPa ENE 5.0mph /  8km/h 10.0mph /  16.1km/h 65% 0.00in /  0mm
17:35 76.0 °F /  24.4 °C 63.4 °F /  17.4 °C 29.76in /  1007.7hPa NE 3.0mph /  4.8km/h 8.0mph /  12.9km/h 65% 0.00in /  0mm
17:40 76.0 °F /  24.4 °C 62.9 °F /  17.2 °C 29.75in /  1007.3hPa ENE 3.0mph /  4.8km/h 7.0mph /  11.3km/h 64% 0.00in /  0mm
17:45 76.0 °F /  24.4 °C 62.9 °F /  17.2 °C 29.75in /  1007.3hPa NE 5.0mph /  8km/h 5.0mph /  8km/h 64% 0.00in /  0mm
17:50 76.0 °F /  24.4 °C 62.9 °F /  17.2 °C 29.75in /  1007.3hPa NE 3.0mph /  4.8km/h 7.0mph /  11.3km/h 64% 0.00in /  0mm
17:55 76.0 °F /  24.4 °C 62.9 °F /  17.2 °C 29.75in /  1007.3hPa ENE 3.0mph /  4.8km/h 7.0mph /  11.3km/h 64% 0.00in /  0mm
18:00 76.1 °F /  24.5 °C 63.0 °F /  17.2 °C 29.75in /  1007.3hPa ENE 3.0mph /  4.8km/h 5.0mph /  8km/h 64% 0.00in /  0mm
18:05 75.9 °F /  24.4 °C 62.8 °F /  17.1 °C 29.75in /  1007.3hPa ENE 2.0mph /  3.2km/h 7.0mph /  11.3km/h 64% 0.00in /  0mm
18:10 75.9 °F /  24.4 °C 62.8 °F /  17.1 °C 29.75in /  1007.3hPa ENE 3.0mph /  4.8km/h 7.0mph /  11.3km/h 64% 0.00in /  0mm
18:15 76.0 °F /  24.4 °C 63.4 °F /  17.4 °C 29.74in /  1007hPa NE 3.0mph /  4.8km/h 5.0mph /  8km/h 65% 0.00in /  0mm
18:20 76.0 °F /  24.4 °C 63.8 °F /  17.7 °C 29.74in /  1007hPa ESE 1.0mph /  1.6km/h 5.0mph /  8km/h 66% 0.00in /  0mm
18:25 75.9 °F /  24.4 °C 63.3 °F /  17.4 °C 29.74in /  1007hPa ENE 2.0mph /  3.2km/h 8.0mph /  12.9km/h 65% 0.00in /  0mm
18:30 75.8 °F /  24.3 °C 63.2 °F /  17.3 °C 29.74in /  1007hPa ENE 2.0mph /  3.2km/h 5.0mph /  8km/h 65% 0.00in /  0mm
18:35 75.7 °F /  24.3 °C 62.7 °F /  17.1 °C 29.74in /  1007hPa ENE 3.0mph /  4.8km/h 8.0mph /  12.9km/h 64% 0.00in /  0mm
18:40 75.7 °F /  24.3 °C 62.2 °F /  16.8 °C 29.74in /  1007hPa NE 2.0mph /  3.2km/h 10.0mph /  16.1km/h 63% 0.00in /  0mm
18:45 75.8 °F /  24.3 °C 62.3 °F /  16.8 °C 29.74in /  1007hPa ENE 4.0mph /  6.4km/h 10.0mph /  16.1km/h 63% 0.00in /  0mm
18:50 75.8 °F /  24.3 °C 61.4 °F /  16.3 °C 29.74in /  1007hPa East 3.0mph /  4.8km/h 9.0mph /  14.5km/h 61% 0.00in /  0mm
18:55 75.9 °F /  24.4 °C 61.0 °F /  16.1 °C 29.74in /  1007hPa NE 2.0mph /  3.2km/h 9.0mph /  14.5km/h 60% 0.00in /  0mm
19:00 75.9 °F /  24.4 °C 61.5 °F /  16.4 °C 29.75in /  1007.3hPa ENE 4.0mph /  6.4km/h 9.0mph /  14.5km/h 61% 0.00in /  0mm
19:05 75.8 °F /  24.3 °C 62.3 °F /  16.8 °C 29.74in /  1007hPa NE 3.0mph /  4.8km/h 7.0mph /  11.3km/h 63% 0.00in /  0mm
19:10 75.5 °F /  24.2 °C 62.5 °F /  16.9 °C 29.75in /  1007.3hPa NE 2.0mph /  3.2km/h 7.0mph /  11.3km/h 64% 0.00in /  0mm
19:15 75.5 °F /  24.2 °C 62.5 °F /  16.9 °C 29.75in /  1007.3hPa Calm   5.0mph /  8km/h 64% 0.00in /  0mm
19:20 75.5 °F /  24.2 °C 62.9 °F /  17.2 °C 29.75in /  1007.3hPa ENE 1.0mph /  1.6km/h 5.0mph /  8km/h 65% 0.00in /  0mm
19:25 75.6 °F /  24.2 °C 63.4 °F /  17.4 °C 29.75in /  1007.3hPa NE 2.0mph /  3.2km/h 5.0mph /  8km/h 66% 0.00in /  0mm
19:30 75.4 °F /  24.1 °C 63.7 °F /  17.6 °C 29.75in /  1007.3hPa ENE 3.0mph /  4.8km/h 7.0mph /  11.3km/h 67% 0.00in /  0mm
19:40 75.2 °F /  24 °C 64.3 °F /  17.9 °C 29.75in /  1007.3hPa NE 3.0mph /  4.8km/h 8.0mph /  12.9km/h 69% 0.00in /  0mm
19:45 75.1 °F /  23.9 °C 64.6 °F /  18.1 °C 29.76in /  1007.7hPa ENE 4.0mph /  6.4km/h 6.0mph /  9.7km/h 70% 0.00in /  0mm
19:50 75.1 °F /  23.9 °C 64.6 °F /  18.1 °C 29.76in /  1007.7hPa ENE 4.0mph /  6.4km/h 8.0mph /  12.9km/h 70% 0.00in /  0mm
19:55 75.0 °F /  23.9 °C 65.0 °F /  18.3 °C 29.76in /  1007.7hPa NE 3.0mph /  4.8km/h 8.0mph /  12.9km/h 71% 0.00in /  0mm
20:00 74.9 °F /  23.8 °C 64.9 °F /  18.3 °C 29.76in /  1007.7hPa ENE 2.0mph /  3.2km/h 7.0mph /  11.3km/h 71% 0.00in /  0mm
20:05 74.8 °F /  23.8 °C 65.2 °F /  18.4 °C 29.77in /  1008hPa NE 2.0mph /  3.2km/h 5.0mph /  8km/h 72% 0.00in /  0mm
20:10 74.6 °F /  23.7 °C 65.4 °F /  18.6 °C 29.77in /  1008hPa NE 6.0mph /  9.7km/h 6.0mph /  9.7km/h 73% 0.00in /  0mm
20:15 74.5 °F /  23.6 °C 65.7 °F /  18.7 °C 29.77in /  1008hPa ENE 7.0mph /  11.3km/h 8.0mph /  12.9km/h 74% 0.00in /  0mm
20:20 74.4 °F /  23.6 °C 66.0 °F /  18.9 °C 29.77in /  1008hPa Calm   7.0mph /  11.3km/h 75% 0.00in /  0mm
20:25 74.2 °F /  23.4 °C 65.8 °F /  18.8 °C 29.77in /  1008hPa NE 2.0mph /  3.2km/h 4.0mph /  6.4km/h 75% 0.00in /  0mm
20:30 73.9 °F /  23.3 °C 65.5 °F /  18.6 °C 29.77in /  1008hPa NE 2.0mph /  3.2km/h 8.0mph /  12.9km/h 75% 0.00in /  0mm
20:35 73.6 °F /  23.1 °C 65.6 °F /  18.7 °C 29.77in /  1008hPa NE 3.0mph /  4.8km/h 10.0mph /  16.1km/h 76% 0.00in /  0mm
20:40 73.4 °F /  23 °C 65.4 °F /  18.6 °C 29.76in /  1007.7hPa NE 4.0mph /  6.4km/h 10.0mph /  16.1km/h 76% 0.00in /  0mm
20:45 73.3 °F /  22.9 °C 65.3 °F /  18.5 °C 29.77in /  1008hPa NE 4.0mph /  6.4km/h 9.0mph /  14.5km/h 76% 0.00in /  0mm
20:50 73.2 °F /  22.9 °C 65.2 °F /  18.4 °C 29.77in /  1008hPa NE 4.0mph /  6.4km/h 9.0mph /  14.5km/h 76% 0.00in /  0mm
20:55 73.1 °F /  22.8 °C 65.5 °F /  18.6 °C 29.76in /  1007.7hPa NE 3.0mph /  4.8km/h 5.0mph /  8km/h 77% 0.00in /  0mm
21:00 73.1 °F /  22.8 °C 65.5 °F /  18.6 °C 29.76in /  1007.7hPa ENE 1.0mph /  1.6km/h 6.0mph /  9.7km/h 77% 0.00in /  0mm
21:05 73.1 °F /  22.8 °C 65.8 °F /  18.8 °C 29.76in /  1007.7hPa ENE 4.0mph /  6.4km/h 7.0mph /  11.3km/h 78% 0.00in /  0mm
21:10 73.1 °F /  22.8 °C 65.8 °F /  18.8 °C 29.76in /  1007.7hPa ENE 1.0mph /  1.6km/h 5.0mph /  8km/h 78% 0.00in /  0mm
21:15 73.0 °F /  22.8 °C 66.1 °F /  18.9 °C 29.77in /  1008hPa NE 2.0mph /  3.2km/h 11.0mph /  17.7km/h 79% 0.00in /  0mm
21:20 72.9 °F /  22.7 °C 66.0 °F /  18.9 °C 29.77in /  1008hPa NE 5.0mph /  8km/h 8.0mph /  12.9km/h 79% 0.00in /  0mm
21:25 72.8 °F /  22.7 °C 65.9 °F /  18.8 °C 29.77in /  1008hPa ENE 4.0mph /  6.4km/h 9.0mph /  14.5km/h 79% 0.00in /  0mm
21:30 72.7 °F /  22.6 °C 65.8 °F /  18.8 °C 29.77in /  1008hPa ENE 5.0mph /  8km/h 9.0mph /  14.5km/h 79% 0.00in /  0mm
21:35 72.6 °F /  22.6 °C 66.1 °F /  18.9 °C 29.77in /  1008hPa ENE 5.0mph /  8km/h 10.0mph /  16.1km/h 80% 0.00in /  0mm
21:40 72.5 °F /  22.5 °C 66.0 °F /  18.9 °C 29.77in /  1008hPa ENE 5.0mph /  8km/h 10.0mph /  16.1km/h 80% 0.00in /  0mm
21:45 72.4 °F /  22.4 °C 65.9 °F /  18.8 °C 29.77in /  1008hPa ENE 4.0mph /  6.4km/h 9.0mph /  14.5km/h 80% 0.00in /  0mm
21:50 72.4 °F /  22.4 °C 65.9 °F /  18.8 °C 29.77in /  1008hPa ENE 2.0mph /  3.2km/h 8.0mph /  12.9km/h 80% 0.00in /  0mm
21:55 72.4 °F /  22.4 °C 66.2 °F /  19 °C 29.77in /  1008hPa ENE 2.0mph /  3.2km/h 5.0mph /  8km/h 81% 0.00in /  0mm
22:00 72.3 °F /  22.4 °C 66.1 °F /  18.9 °C 29.77in /  1008hPa ENE 3.0mph /  4.8km/h 6.0mph /  9.7km/h 81% 0.00in /  0mm
22:05 72.3 °F /  22.4 °C 66.1 °F /  18.9 °C 29.77in /  1008hPa NE 1.0mph /  1.6km/h 5.0mph /  8km/h 81% 0.00in /  0mm
22:10 72.2 °F /  22.3 °C 66.0 °F /  18.9 °C 29.77in /  1008hPa ENE 2.0mph /  3.2km/h 7.0mph /  11.3km/h 81% 0.00in /  0mm
22:15 72.2 °F /  22.3 °C 66.0 °F /  18.9 °C 29.77in /  1008hPa Calm   5.0mph /  8km/h 81% 0.00in /  0mm
22:20 72.1 °F /  22.3 °C 66.3 °F /  19.1 °C 29.77in /  1008hPa East 2.0mph /  3.2km/h 6.0mph /  9.7km/h 82% 0.00in /  0mm
22:25 72.1 °F /  22.3 °C 66.3 °F /  19.1 °C 29.77in /  1008hPa NE 3.0mph /  4.8km/h 8.0mph /  12.9km/h 82% 0.00in /  0mm
22:30 71.9 °F /  22.2 °C 66.1 °F /  18.9 °C 29.77in /  1008hPa ENE 4.0mph /  6.4km/h 8.0mph /  12.9km/h 82% 0.00in /  0mm
22:35 72.0 °F /  22.2 °C 66.2 °F /  19 °C 29.77in /  1008hPa ENE 3.0mph /  4.8km/h 7.0mph /  11.3km/h 82% 0.00in /  0mm
22:40 72.0 °F /  22.2 °C 66.2 °F /  19 °C 29.77in /  1008hPa ENE 2.0mph /  3.2km/h 6.0mph /  9.7km/h 82% 0.00in /  0mm
22:45 71.9 °F /  22.2 °C 66.1 °F /  18.9 °C 29.77in /  1008hPa ENE 1.0mph /  1.6km/h 4.0mph /  6.4km/h 82% 0.00in /  0mm
22:50 71.8 °F /  22.1 °C 66.0 °F /  18.9 °C 29.78in /  1008.4hPa Calm   2.0mph /  3.2km/h 82% 0.00in /  0mm
22:55 71.7 °F /  22.1 °C 66.3 °F /  19.1 °C 29.78in /  1008.4hPa Calm     83% 0.00in /  0mm
23:00 71.6 °F /  22 °C 66.2 °F /  19 °C 29.77in /  1008hPa Calm     83% 0.00in /  0mm
23:05 71.5 °F /  21.9 °C 66.1 °F /  18.9 °C 29.77in /  1008hPa Calm     83% 0.00in /  0mm
23:10 71.5 °F /  21.9 °C 66.1 °F /  18.9 °C 29.77in /  1008hPa Calm     83% 0.00in /  0mm
23:15 71.5 °F /  21.9 °C 66.1 °F /  18.9 °C 29.78in /  1008.4hPa Calm     83% 0.00in /  0mm
23:20 71.5 °F /  21.9 °C 66.1 °F /  18.9 °C 29.78in /  1008.4hPa ENE 1.0mph /  1.6km/h 3.0mph /  4.8km/h 83% 0.00in /  0mm
23:25 71.4 °F /  21.9 °C 66.3 °F /  19.1 °C 29.78in /  1008.4hPa ENE 1.0mph /  1.6km/h 2.0mph /  3.2km/h 84% 0.00in /  0mm
23:30 71.3 °F /  21.8 °C 66.2 °F /  19 °C 29.78in /  1008.4hPa Calm   2.0mph /  3.2km/h 84% 0.00in /  0mm
23:35 70.9 °F /  21.6 °C 66.2 °F /  19 °C 29.78in /  1008.4hPa ENE 1.0mph /  1.6km/h 2.0mph /  3.2km/h 85% 0.00in /  0mm
23:40 70.7 °F /  21.5 °C 66.3 °F /  19.1 °C 29.78in /  1008.4hPa Calm   2.0mph /  3.2km/h 86% 0.01in /  0.25mm
23:45 70.6 °F /  21.4 °C 66.2 °F /  19 °C 29.78in /  1008.4hPa Calm   1.0mph /  1.6km/h 86% 0.01in /  0.25mm
23:50 70.3 °F /  21.3 °C 66.2 °F /  19 °C 29.77in /  1008hPa Calm   2.0mph /  3.2km/h 87% 0.01in /  0.25mm
23:55 70.3 °F /  21.3 °C 66.6 °F /  19.2 °C 29.77in /  1008hPa Calm   2.0mph /  3.2km/h 88% 0.02in /  0.51mm
Buffalo, New York, USA
Compliments of Weather Underground - 2.5 mb